createdAt,value
2022-11-24T00:01:13.088Z,3.84
2022-11-24T00:03:14.803Z,3.84
2022-11-24T00:05:16.640Z,3.84
2022-11-24T00:07:17.975Z,3.84
2022-11-24T00:09:18.982Z,3.84
2022-11-24T00:11:20.357Z,3.84
2022-11-24T00:13:21.501Z,3.84
2022-11-24T00:17:24.680Z,3.84
2022-11-24T00:19:25.914Z,3.84
2022-11-24T00:23:28.637Z,3.84
2022-11-24T00:25:30.310Z,3.84
2022-11-24T00:27:32.093Z,3.84
2022-11-24T00:29:33.579Z,3.84
2022-11-24T00:33:36.527Z,3.84
2022-11-24T00:35:38.176Z,3.84
2022-11-24T00:37:39.720Z,3.84
2022-11-24T00:39:41.395Z,3.84
2022-11-24T00:43:44.121Z,3.84
2022-11-24T00:45:45.553Z,3.84
2022-11-24T00:47:47.135Z,3.84
2022-11-24T00:49:48.819Z,3.84
2022-11-24T00:51:49.974Z,3.83
2022-11-24T00:53:51.652Z,3.84
2022-11-24T00:55:52.749Z,3.84
2022-11-24T00:59:55.693Z,3.83
2022-11-24T01:01:57.090Z,3.83
2022-11-24T01:03:58.959Z,3.83
2022-11-24T01:06:44.307Z,3.83
2022-11-24T01:10:47.740Z,3.83
2022-11-24T01:12:49.630Z,3.83
2022-11-24T01:14:51.378Z,3.83
2022-11-24T01:16:52.597Z,3.83
2022-11-24T01:20:55.360Z,3.83
2022-11-24T01:22:56.916Z,3.83
2022-11-24T01:27:00.447Z,3.83
2022-11-24T01:29:01.793Z,3.83
2022-11-24T01:31:03.458Z,3.83
2022-11-24T01:33:05.213Z,3.83
2022-11-24T01:37:08.334Z,3.83
2022-11-24T01:39:10.171Z,3.83
2022-11-24T01:41:11.460Z,3.83
2022-11-24T01:43:13.002Z,3.83
2022-11-24T01:45:14.504Z,3.83
2022-11-24T01:47:15.991Z,3.83
2022-11-24T01:49:17.405Z,3.83
2022-11-24T01:53:20.508Z,3.83
2022-11-24T01:55:30.181Z,3.83
2022-11-24T01:57:24.097Z,3.83
2022-11-24T01:59:25.995Z,3.82
2022-11-24T02:03:28.600Z,3.82
2022-11-24T02:05:30.293Z,3.83
2022-11-24T02:09:32.901Z,3.82
2022-11-24T02:11:33.885Z,3.82
2022-11-24T02:13:35.052Z,3.82
2022-11-24T02:15:36.301Z,3.83
2022-11-24T02:19:39.574Z,3.82
2022-11-24T02:21:41.097Z,3.82
2022-11-24T02:23:42.966Z,3.82
2022-11-24T02:25:43.962Z,3.82
2022-11-24T02:27:48.181Z,3.82
2022-11-24T02:29:46.448Z,3.82
2022-11-24T02:31:47.853Z,3.82
2022-11-24T02:35:49.961Z,3.82
2022-11-24T02:37:51.546Z,3.82
2022-11-24T02:39:53.392Z,3.82
2022-11-24T02:41:55.082Z,3.82
2022-11-24T02:45:57.581Z,3.82
2022-11-24T02:47:58.665Z,3.82
2022-11-24T02:50:00.103Z,3.82
2022-11-24T02:52:01.339Z,3.82
2022-11-24T02:54:03.154Z,3.82
2022-11-24T02:56:04.759Z,3.82
2022-11-24T02:58:06.446Z,3.82
2022-11-24T03:02:09.696Z,3.82
2022-11-24T03:04:11.056Z,3.82
2022-11-24T03:08:13.958Z,3.82
2022-11-24T03:10:15.900Z,3.82
2022-11-24T03:12:17.602Z,3.82
2022-11-24T03:14:18.772Z,3.82
2022-11-24T03:16:20.190Z,3.82
2022-11-24T03:18:21.721Z,3.82
2022-11-24T03:20:23.148Z,3.82
2022-11-24T03:22:24.607Z,3.82
2022-11-24T03:24:26.265Z,3.82
2022-11-24T03:28:29.160Z,3.82
2022-11-24T03:30:30.847Z,3.81
2022-11-24T03:32:32.004Z,3.82
2022-11-24T03:34:33.266Z,3.82
2022-11-24T03:36:34.307Z,3.81
2022-11-24T03:38:35.681Z,3.82
2022-11-24T03:40:37.175Z,3.82
2022-11-24T03:44:40.493Z,3.81
2022-11-24T03:46:42.197Z,3.82
2022-11-24T03:48:43.218Z,3.81
2022-11-24T03:50:45.214Z,3.81
2022-11-24T03:52:46.465Z,3.81
2022-11-24T03:54:47.973Z,3.81
2022-11-24T03:56:49.397Z,3.81
2022-11-24T04:00:52.570Z,3.81
2022-11-24T04:02:53.560Z,3.81
2022-11-24T04:04:54.597Z,3.82
2022-11-24T04:06:55.940Z,3.81
2022-11-24T04:08:57.559Z,3.81
2022-11-24T04:10:59.358Z,3.81
2022-11-24T04:13:00.512Z,3.81
2022-11-24T04:17:03.007Z,3.81
2022-11-24T04:19:04.008Z,3.81
2022-11-24T04:21:05.235Z,3.8
2022-11-24T04:23:06.580Z,3.81
2022-11-24T04:27:09.991Z,3.81
2022-11-24T04:29:11.563Z,3.81
2022-11-24T04:31:13.186Z,3.81
2022-11-24T04:33:15.043Z,3.8
2022-11-24T04:35:16.592Z,3.8
2022-11-24T04:37:17.530Z,3.8
2022-11-24T04:39:26.212Z,3.8
2022-11-24T04:43:21.616Z,3.8
2022-11-24T04:45:23.510Z,3.81
2022-11-24T04:47:25.039Z,3.8
2022-11-24T04:49:26.682Z,3.8
2022-11-24T04:51:27.641Z,3.8
2022-11-24T04:53:28.777Z,3.8
2022-11-24T04:55:30.707Z,3.8
2022-11-24T04:59:34.062Z,3.8
2022-11-24T05:01:35.731Z,3.8
2022-11-24T05:03:36.851Z,3.8
2022-11-24T05:05:38.569Z,3.8
2022-11-24T05:09:58.347Z,3.8
2022-11-24T05:11:43.316Z,3.8
2022-11-24T05:15:46.451Z,3.8
2022-11-24T05:17:48.163Z,3.8
2022-11-24T05:19:49.475Z,3.8
2022-11-24T05:21:51.187Z,3.8
2022-11-24T05:25:53.893Z,3.8
2022-11-24T05:27:55.288Z,3.8
2022-11-24T05:29:56.314Z,3.8
2022-11-24T05:31:58.009Z,3.8
2022-11-24T05:33:59.218Z,3.8
2022-11-24T05:36:00.202Z,3.8
2022-11-24T05:38:01.281Z,3.8
2022-11-24T05:42:04.331Z,3.8
2022-11-24T05:44:05.506Z,3.8
2022-11-24T05:46:06.861Z,3.8
2022-11-24T05:48:08.627Z,3.8
2022-11-24T05:52:11.543Z,3.8
2022-11-24T05:54:12.555Z,3.8
2022-11-24T05:56:13.773Z,3.8
2022-11-24T05:58:14.962Z,3.8
2022-11-24T06:00:16.602Z,3.8
2022-11-24T06:02:17.740Z,3.8
2022-11-24T06:04:18.894Z,3.8
2022-11-24T06:08:23.663Z,3.79
2022-11-24T06:10:22.878Z,3.8
2022-11-24T06:14:25.916Z,3.8
2022-11-24T06:16:27.302Z,3.8
2022-11-24T06:18:29.186Z,3.79
2022-11-24T06:20:32.770Z,3.8
2022-11-24T06:24:33.174Z,3.8
2022-11-24T06:26:34.329Z,3.79
2022-11-24T06:28:36.256Z,3.8
2022-11-24T06:30:37.297Z,3.8
2022-11-24T06:34:39.791Z,3.79
2022-11-24T06:36:41.548Z,3.79
2022-11-24T06:38:43.249Z,3.8
2022-11-24T06:40:45.151Z,3.79
2022-11-24T06:42:46.874Z,3.79
2022-11-24T06:44:48.853Z,3.79
2022-11-24T06:46:50.206Z,3.79
2022-11-24T06:50:52.578Z,3.79
2022-11-24T06:52:53.904Z,3.79
2022-11-24T06:54:55.523Z,3.79
2022-11-24T06:56:57.202Z,3.79
2022-11-24T06:58:59.022Z,3.79
2022-11-24T07:01:00.300Z,3.79
2022-11-24T07:03:01.886Z,3.79
2022-11-24T07:07:04.588Z,3.79
2022-11-24T07:09:06.014Z,3.79
2022-11-24T07:11:07.475Z,3.79
2022-11-24T07:13:09.220Z,3.79
2022-11-24T07:15:10.941Z,3.79
2022-11-24T07:19:13.226Z,3.79
2022-11-24T07:23:15.365Z,3.79
2022-11-24T07:25:16.962Z,3.78
2022-11-24T07:27:18.055Z,3.79
2022-11-24T07:29:19.814Z,3.78
2022-11-24T07:33:23.126Z,3.79
2022-11-24T07:35:24.251Z,3.78
2022-11-24T07:37:29.716Z,3.78
2022-11-24T07:39:26.310Z,3.78
2022-11-24T07:41:27.283Z,3.78
2022-11-24T07:43:28.764Z,3.78
2022-11-24T07:47:31.784Z,3.78
2022-11-24T07:50:16.829Z,3.78
2022-11-24T07:52:18.511Z,3.78
2022-11-24T07:54:19.799Z,3.78
2022-11-24T07:56:21.672Z,3.78
2022-11-24T08:00:23.559Z,3.78
2022-11-24T08:02:24.853Z,3.78
2022-11-24T08:04:26.353Z,3.78
2022-11-24T08:06:32.524Z,3.78
2022-11-24T08:10:31.641Z,3.78
2022-11-24T08:12:33.180Z,3.78
2022-11-24T08:14:34.850Z,3.78
2022-11-24T08:16:36.312Z,3.78
2022-11-24T08:18:37.288Z,3.78
2022-11-24T08:20:38.412Z,3.78
2022-11-24T08:22:40.305Z,3.78
2022-11-24T08:26:43.384Z,3.78
2022-11-24T08:28:44.613Z,3.78
2022-11-24T08:30:46.261Z,3.78
2022-11-24T08:32:47.494Z,3.78
2022-11-24T08:34:48.960Z,3.78
2022-11-24T08:36:50.198Z,3.78
2022-11-24T08:38:51.302Z,3.78
2022-11-24T08:42:54.621Z,3.78
2022-11-24T08:44:58.969Z,3.78
2022-11-24T08:46:56.871Z,3.78
2022-11-24T08:48:57.818Z,3.78
2022-11-24T08:50:59.164Z,3.78
2022-11-24T08:53:00.886Z,3.78
2022-11-24T08:55:02.595Z,3.78
2022-11-24T08:59:06.283Z,3.78
2022-11-24T09:01:08.144Z,3.78
2022-11-24T09:03:09.599Z,3.78
2022-11-24T09:05:29.018Z,3.78
2022-11-24T09:09:13.999Z,3.78
2022-11-24T09:11:15.372Z,3.77
2022-11-24T09:13:16.668Z,3.78
2022-11-24T09:15:18.316Z,3.77
2022-11-24T09:17:21.193Z,3.78
2022-11-24T09:19:21.225Z,3.77
2022-11-24T09:23:23.929Z,3.78
2022-11-24T09:25:25.732Z,3.78
2022-11-24T09:27:26.750Z,3.77
2022-11-24T09:29:28.194Z,3.77
2022-11-24T09:31:29.731Z,3.77
2022-11-24T09:33:30.682Z,3.77
2022-11-24T09:35:32.288Z,3.77
2022-11-24T09:37:33.249Z,3.77
2022-11-24T09:41:36.276Z,3.77
2022-11-24T09:43:37.437Z,3.79
2022-11-24T09:45:57.428Z,3.77
2022-11-24T09:47:40.977Z,3.77
2022-11-24T09:51:43.277Z,3.77
2022-11-24T09:53:44.452Z,3.77
2022-11-24T09:55:46.155Z,3.77
2022-11-24T09:57:47.220Z,3.77
2022-11-24T09:59:48.834Z,3.78
2022-11-24T10:01:49.857Z,3.78
2022-11-24T10:03:50.973Z,3.78
2022-11-24T10:07:53.523Z,3.78
2022-11-24T10:09:54.928Z,3.79
2022-11-24T10:11:56.010Z,3.82
2022-11-24T10:13:57.376Z,3.82
2022-11-24T10:15:58.405Z,3.8
2022-11-24T10:18:00.047Z,3.8
2022-11-24T10:20:01.682Z,3.8
2022-11-24T10:24:04.331Z,3.79
2022-11-24T10:26:05.533Z,3.79
2022-11-24T10:28:06.528Z,3.8
2022-11-24T10:30:07.880Z,3.83
2022-11-24T10:34:11.271Z,3.84
2022-11-24T10:36:12.574Z,3.84
2022-11-24T10:38:14.238Z,3.85
2022-11-24T10:40:33.263Z,3.83
2022-11-24T10:42:16.056Z,3.82
2022-11-24T10:44:17.834Z,3.82
2022-11-24T10:46:19.261Z,3.83
2022-11-24T10:50:21.665Z,3.86
2022-11-24T10:52:22.979Z,3.86
2022-11-24T10:56:26.472Z,3.86
2022-11-24T10:58:31.640Z,3.86
2022-11-24T11:00:29.901Z,3.87
2022-11-24T11:02:31.952Z,3.87
2022-11-24T11:06:33.848Z,3.88
2022-11-24T11:08:34.925Z,3.88
2022-11-24T11:10:36.162Z,3.88
2022-11-24T11:12:44.551Z,3.88
2022-11-24T11:16:40.061Z,3.89
2022-11-24T11:18:41.915Z,3.9
2022-11-24T11:20:43.359Z,3.9
2022-11-24T11:22:44.835Z,3.9
2022-11-24T11:24:46.302Z,3.87
2022-11-24T11:26:47.546Z,3.86
2022-11-24T11:28:48.441Z,3.86
2022-11-24T11:34:52.231Z,3.87
2022-11-24T11:36:53.440Z,3.87
2022-11-24T11:38:55.275Z,3.87
2022-11-24T11:40:56.907Z,3.86
2022-11-24T11:43:02.970Z,3.86
2022-11-24T11:44:59.995Z,3.86
2022-11-24T11:49:02.892Z,3.87
2022-11-24T11:51:22.634Z,3.87
2022-11-24T11:53:05.990Z,3.87
2022-11-24T11:55:07.915Z,3.88
2022-11-24T11:57:08.970Z,3.89
2022-11-24T11:59:10.476Z,3.88
2022-11-24T12:01:12.319Z,3.88
2022-11-24T12:05:15.241Z,3.91
2022-11-24T12:07:16.957Z,3.92
2022-11-24T12:09:20.564Z,3.92
2022-11-24T12:11:19.020Z,3.92
2022-11-24T12:15:21.087Z,3.91
2022-11-24T12:17:22.516Z,3.91
2022-11-24T12:21:26.557Z,3.91
2022-11-24T12:23:25.947Z,3.91
2022-11-24T12:25:27.194Z,3.91
2022-11-24T12:27:28.181Z,3.9
2022-11-24T12:31:31.931Z,3.9
2022-11-24T12:33:33.120Z,3.9
2022-11-24T12:35:34.753Z,3.89
2022-11-24T12:37:35.815Z,3.89
2022-11-24T12:39:37.270Z,3.89
2022-11-24T12:41:42.575Z,3.9
2022-11-24T12:43:39.418Z,3.9
2022-11-24T12:47:41.891Z,3.89
2022-11-24T12:49:43.206Z,3.89
2022-11-24T12:51:44.632Z,3.9
2022-11-24T12:53:45.679Z,3.9
2022-11-24T12:57:48.004Z,3.9
2022-11-24T12:59:49.806Z,3.9
2022-11-24T13:01:50.960Z,3.9
2022-11-24T13:03:52.777Z,3.9
2022-11-24T13:05:53.873Z,3.9
2022-11-24T13:07:55.777Z,3.9
2022-11-24T13:09:57.503Z,3.9
2022-11-24T13:13:59.741Z,3.9
2022-11-24T13:16:34.390Z,3.91
2022-11-24T13:20:03.944Z,3.91
2022-11-24T13:22:05.706Z,3.9
2022-11-24T13:24:07.095Z,3.91
2022-11-24T13:26:09.680Z,3.94
2022-11-24T13:30:13.195Z,3.92
2022-11-24T13:32:14.688Z,3.95
2022-11-24T13:34:15.761Z,3.95
2022-11-24T13:36:17.430Z,3.94
2022-11-24T13:40:20.076Z,3.94
2022-11-24T13:42:40.977Z,3.93
2022-11-24T13:44:23.311Z,3.92
2022-11-24T13:46:24.325Z,3.92
2022-11-24T13:48:25.972Z,3.92
2022-11-24T13:52:28.572Z,3.92
2022-11-24T13:54:30.270Z,3.92
2022-11-24T13:56:32.082Z,3.92
2022-11-24T13:58:33.419Z,3.92
2022-11-24T14:02:35.978Z,3.91
2022-11-24T14:04:37.482Z,3.91
2022-11-24T14:06:38.619Z,3.91
2022-11-24T14:08:39.787Z,3.91
2022-11-24T14:12:42.568Z,3.91
2022-11-24T14:14:43.785Z,3.91
2022-11-24T14:16:45.019Z,3.91
2022-11-24T14:18:46.009Z,3.91
2022-11-24T14:20:47.428Z,3.91
2022-11-24T14:22:49.027Z,3.91
2022-11-24T14:24:50.739Z,3.91
2022-11-24T14:26:52.307Z,3.91
2022-11-24T14:28:53.356Z,3.91
2022-11-24T14:30:54.949Z,3.91
2022-11-24T14:32:56.631Z,3.91
2022-11-24T14:34:57.831Z,3.91
2022-11-24T14:37:42.864Z,3.9
2022-11-24T14:39:44.507Z,3.91
2022-11-24T14:41:45.962Z,3.9
2022-11-24T14:43:46.984Z,3.9
2022-11-24T14:45:47.932Z,3.9
2022-11-24T14:47:49.301Z,3.9
2022-11-24T14:49:50.341Z,3.9
2022-11-24T14:51:52.297Z,3.9
2022-11-24T14:55:55.378Z,3.9
2022-11-24T14:57:56.536Z,3.91
2022-11-24T14:59:58.255Z,3.9
2022-11-24T15:02:00.221Z,3.9
2022-11-24T15:06:03.131Z,3.9
2022-11-24T15:08:04.828Z,3.9
2022-11-24T15:12:06.935Z,3.9
2022-11-24T15:14:08.215Z,3.9
2022-11-24T15:16:09.835Z,3.9
2022-11-24T15:18:10.878Z,3.9
2022-11-24T15:22:13.866Z,3.9
2022-11-24T15:24:14.935Z,3.9
2022-11-24T15:26:16.832Z,3.9
2022-11-24T15:28:18.660Z,3.9
2022-11-24T15:30:19.642Z,3.9
2022-11-24T15:32:21.405Z,3.9
2022-11-24T15:34:23.072Z,3.9
2022-11-24T15:38:26.057Z,3.9
2022-11-24T15:40:27.280Z,3.9
2022-11-24T15:42:28.687Z,3.9
2022-11-24T15:44:30.280Z,3.9
2022-11-24T15:48:33.111Z,3.9
2022-11-24T15:50:34.089Z,3.9
2022-11-24T15:52:35.803Z,3.9
2022-11-24T15:54:37.557Z,3.9
2022-11-24T15:56:38.803Z,3.89
2022-11-24T15:58:40.750Z,3.9
2022-11-24T16:00:42.277Z,3.89
2022-11-24T16:04:45.754Z,3.89
2022-11-24T16:06:47.470Z,3.89
2022-11-24T16:10:50.296Z,3.89
2022-11-24T16:12:51.534Z,3.9
2022-11-24T16:14:53.176Z,3.89
2022-11-24T16:16:55.312Z,3.89
2022-11-24T16:20:58.022Z,3.89
2022-11-24T16:22:59.953Z,3.89
2022-11-24T16:25:01.800Z,3.89
2022-11-24T16:27:03.107Z,3.89
2022-11-24T16:31:05.723Z,3.89
2022-11-24T16:33:07.454Z,3.89
2022-11-24T16:35:08.509Z,3.89
2022-11-24T16:37:09.779Z,3.89
2022-11-24T16:39:11.475Z,3.89
2022-11-24T16:41:13.020Z,3.89
2022-11-24T16:43:14.086Z,3.89
2022-11-24T16:47:17.009Z,3.88
2022-11-24T16:49:18.558Z,3.89
2022-11-24T16:53:21.347Z,3.89
2022-11-24T16:55:22.776Z,3.88
2022-11-24T16:57:24.129Z,3.88
2022-11-24T16:59:25.769Z,3.88
2022-11-24T17:03:29.508Z,3.89
2022-11-24T17:05:31.481Z,3.88
2022-11-24T17:07:33.169Z,3.88
2022-11-24T17:09:40.081Z,3.88
2022-11-24T17:13:36.779Z,3.88
2022-11-24T17:15:44.626Z,3.88
2022-11-24T17:17:55.351Z,3.88
2022-11-24T17:19:42.082Z,3.88
2022-11-24T17:21:43.334Z,3.88
2022-11-24T17:23:44.711Z,3.88
2022-11-24T17:25:45.793Z,3.88
2022-11-24T17:29:49.538Z,3.88
2022-11-24T17:31:51.483Z,3.88
2022-11-24T17:35:54.664Z,3.88
2022-11-24T17:37:55.648Z,3.88
2022-11-24T17:40:20.561Z,3.88
2022-11-24T17:41:58.182Z,3.88
2022-11-24T17:46:01.136Z,3.88
2022-11-24T17:48:02.165Z,3.88
2022-11-24T17:50:04.096Z,3.88
2022-11-24T17:52:05.637Z,3.88
2022-11-24T17:56:08.787Z,3.88
2022-11-24T17:58:10.371Z,3.88
2022-11-24T18:02:12.964Z,3.88
2022-11-24T18:04:14.493Z,3.88
2022-11-24T18:06:16.286Z,3.88
2022-11-24T18:08:18.231Z,3.88
2022-11-24T18:12:21.220Z,3.87
2022-11-24T18:14:22.388Z,3.88
2022-11-24T18:16:23.925Z,3.87
2022-11-24T18:18:25.786Z,3.87
2022-11-24T18:20:26.802Z,3.87
2022-11-24T18:22:50.376Z,3.87
2022-11-24T18:24:29.887Z,3.87
2022-11-24T18:28:32.434Z,3.87
2022-11-24T18:30:34.428Z,3.87
2022-11-24T18:32:36.084Z,3.87
2022-11-24T18:34:37.573Z,3.87
2022-11-24T18:36:39.107Z,3.87
2022-11-24T18:38:41.068Z,3.87
2022-11-24T18:40:42.594Z,3.87
2022-11-24T18:44:47.660Z,3.87
2022-11-24T18:46:47.448Z,3.87
2022-11-24T18:48:48.877Z,3.87
2022-11-24T18:50:50.165Z,3.86
2022-11-24T18:54:52.865Z,3.87
2022-11-24T18:56:56.673Z,3.87
2022-11-24T18:58:55.383Z,3.87
2022-11-24T19:00:56.950Z,3.87
2022-11-24T19:02:58.893Z,3.87
2022-11-24T19:05:00.022Z,3.87
2022-11-24T19:07:01.901Z,3.86
2022-11-24T19:11:04.850Z,3.87
2022-11-24T19:13:06.175Z,3.86
2022-11-24T19:15:07.798Z,3.86
2022-11-24T19:17:09.710Z,3.86
2022-11-24T19:19:10.715Z,3.86
2022-11-24T19:21:11.847Z,3.86
2022-11-24T19:23:13.390Z,3.86
2022-11-24T19:27:15.748Z,3.86
2022-11-24T19:29:16.866Z,3.86
2022-11-24T19:31:18.565Z,3.86
2022-11-24T19:33:20.054Z,3.86
2022-11-24T19:37:22.621Z,3.86
2022-11-24T19:39:23.780Z,3.86
2022-11-24T19:41:25.084Z,3.86
2022-11-24T19:43:26.736Z,3.86
2022-11-24T19:45:27.828Z,3.86
2022-11-24T19:47:29.610Z,3.86
2022-11-24T19:49:31.583Z,3.86
2022-11-24T19:53:34.255Z,3.86
2022-11-24T19:55:35.496Z,3.86
2022-11-24T19:59:38.515Z,3.86
2022-11-24T20:01:39.890Z,3.86
2022-11-24T20:03:41.757Z,3.86
2022-11-24T20:05:43.435Z,3.86
2022-11-24T20:09:45.765Z,3.86
2022-11-24T20:11:47.029Z,3.86
2022-11-24T20:13:48.358Z,3.86
2022-11-24T20:15:49.651Z,3.86
2022-11-24T20:19:52.754Z,3.85
2022-11-24T20:21:54.171Z,3.86
2022-11-24T20:23:55.502Z,3.86
2022-11-24T20:25:56.777Z,3.86
2022-11-24T20:27:57.909Z,3.85
2022-11-24T20:29:59.932Z,3.85
2022-11-24T20:32:01.038Z,3.85
2022-11-24T20:36:03.733Z,3.85
2022-11-24T20:38:05.500Z,3.85
2022-11-24T20:40:06.527Z,3.85
2022-11-24T20:42:08.377Z,3.85
2022-11-24T20:44:10.111Z,3.85
2022-11-24T20:46:11.362Z,3.85
2022-11-24T20:48:12.879Z,3.85
2022-11-24T20:52:15.867Z,3.85
2022-11-24T20:54:17.694Z,3.85
2022-11-24T20:56:18.973Z,3.85
2022-11-24T20:58:20.704Z,3.85
2022-11-24T21:02:24.510Z,3.85
2022-11-24T21:04:26.275Z,3.85
2022-11-24T21:06:28.058Z,3.85
2022-11-24T21:08:30.010Z,3.85
2022-11-24T21:10:31.824Z,3.85
2022-11-24T21:12:33.085Z,3.84
2022-11-24T21:14:35.412Z,3.85
2022-11-24T21:18:37.620Z,3.85
2022-11-24T21:20:38.904Z,3.84
2022-11-24T21:23:24.527Z,3.84
2022-11-24T21:25:26.258Z,3.84
2022-11-24T21:29:29.080Z,3.84
2022-11-24T21:31:30.729Z,3.84
2022-11-24T21:33:32.003Z,3.84
2022-11-24T21:35:33.284Z,3.84
2022-11-24T21:37:35.180Z,3.84
2022-11-24T21:39:36.341Z,3.84
2022-11-24T21:41:37.506Z,3.84
2022-11-24T21:45:41.429Z,3.84
2022-11-24T21:47:43.001Z,3.84
2022-11-24T21:49:44.190Z,3.84
2022-11-24T21:51:45.916Z,3.84
2022-11-24T21:55:48.771Z,3.84
2022-11-24T21:57:50.407Z,3.84
2022-11-24T22:01:53.323Z,3.84
2022-11-24T22:03:54.504Z,3.84
2022-11-24T22:05:55.717Z,3.84
2022-11-24T22:07:57.684Z,3.84
2022-11-24T22:12:00.423Z,3.84
2022-11-24T22:14:01.804Z,3.84
2022-11-24T22:16:03.192Z,3.84
2022-11-24T22:18:05.048Z,3.84
2022-11-24T22:20:07.057Z,3.84
2022-11-24T22:22:08.464Z,3.83
2022-11-24T22:24:10.173Z,3.84
2022-11-24T22:28:13.379Z,3.84
2022-11-24T22:30:14.524Z,3.84
2022-11-24T22:32:16.329Z,3.83
2022-11-24T22:34:17.723Z,3.83
2022-11-24T22:38:20.581Z,3.83
2022-11-24T22:40:22.172Z,3.84
2022-11-24T22:44:26.020Z,3.84
2022-11-24T22:46:27.673Z,3.83
2022-11-24T22:48:28.919Z,3.83
2022-11-24T22:50:30.012Z,3.83
2022-11-24T22:54:33.114Z,3.83
2022-11-24T22:56:34.814Z,3.83
2022-11-24T23:00:38.354Z,3.83
2022-11-24T23:02:40.362Z,3.83
2022-11-24T23:04:41.508Z,3.83
2022-11-24T23:06:43.439Z,3.83
2022-11-24T23:10:46.612Z,3.83
2022-11-24T23:12:47.877Z,3.83
2022-11-24T23:14:49.219Z,3.83
2022-11-24T23:16:50.402Z,3.83
2022-11-24T23:18:53.875Z,3.83
2022-11-24T23:20:53.804Z,3.83
2022-11-24T23:22:55.564Z,3.83
2022-11-24T23:24:57.425Z,3.83
2022-11-24T23:26:59.281Z,3.83
2022-11-24T23:29:00.437Z,3.82
2022-11-24T23:31:01.762Z,3.83
2022-11-24T23:33:02.988Z,3.83
2022-11-24T23:37:06.840Z,3.82
2022-11-24T23:39:08.102Z,3.83
2022-11-24T23:43:11.533Z,3.82
2022-11-24T23:45:12.768Z,3.83
2022-11-24T23:47:14.140Z,3.82
2022-11-24T23:49:16.184Z,3.82
2022-11-24T23:53:19.639Z,3.82
2022-11-24T23:55:21.073Z,3.82
2022-11-24T23:57:22.440Z,3.82
2022-11-24T23:59:23.638Z,3.82
